Port Clinton, PA (19549)

11:56 PM EST on December 17, 2014 (GMT -0500)
Hamburg | Change Station
CLOSE
Current Station
Personal Weather Station
Location: Hamburg, PA
Elevation: 416 ft
Nearby Weather Stations

Elev 416 ft 40.56 °N, 75.98 °W | Updated 4 minutes ago

Mostly Cloudy
Mostly Cloudy
34.7 °F
Feels Like 30 °F
N
5.0
Wind Variable Wind from WNW
Gusts 5.0 mph

Today
High -- | Low -- °F
--% Chance of Precip.
Yesterday
High -- | Low -- °F
Precip. -- in
7:21 AM 4:38 PM
Waning Crescent, 17% visible
Pressure 30.00 in
Visibility 10.0 miles
Clouds Few 4200 ft
Scattered Clouds 5500 ft
Windchill 30 °F
Dew Point 26 °F
Humidity 69%
Rainfall 0.00 in
Snow Depth Not available.
UV 0 out of 12
Pollen .10 out of 12
Air Quality Not available.
Flu Activity Not available.
METAR KRDG 180354Z 29011KT 10SM FEW042 SCT055 02/M06 A2998 RMK AO2 SLP159 T00171056

More Conditions Fewer Conditions

Pressure 30.00 in
Visibility 10.0 miles
Clouds Few 4200 ft
Scattered Clouds 5500 ft
Windchill 30 °F
Dew Point 26 °F
Humidity 69%
Rainfall 0.00 in
Snow Depth Not available.
UV 0 out of 12
Pollen .10 out of 12
Air Quality Not available.
Flu Activity Not available.
METAR KRDG 180354Z 29011KT 10SM FEW042 SCT055 02/M06 A2998 RMK AO2 SLP159 T00171056

More Conditions Fewer Conditions

10-Day Weather Forecast

Almanac

Astronomy

Dec. 17, 2014 Rise Set
Actual Time
Civil Twilight
Nautical Twilight
Astronomical Twilight
Moon
Length of Visible Light
Length of Day
Tomorrow will be .
, % of the Moon is Illuminated

Today's Extremes

State Highs State Lows

Community

WunderPhotos

Upload Photos

1,778,883 photos uploaded!

WunderBlogs® & News

Nearby

Air Quality

  Air Quality AQ Index Pollutant
Not available.

Snow Depth

Station Depth Elevation

Earthquake Activity

City Distance Mag. Time & Date
Minimum magnitude displayed is 2.5.

Coastal Water Temperatures

Place Temperature

Nearby Weather Stations